sensor_id;sensor_type;location;lat;lon;timestamp;P1;durP1;ratioP1;P2;durP2;ratioP2
6292;SDS011;3179;54.350;10.102;2022-08-23T00:01:46;3.73;;;1.40;;
6292;SDS011;3179;54.350;10.102;2022-08-23T00:04:16;4.67;;;1.90;;
6292;SDS011;3179;54.350;10.102;2022-08-23T00:06:46;4.27;;;2.53;;
6292;SDS011;3179;54.350;10.102;2022-08-23T00:09:14;3.33;;;1.53;;
6292;SDS011;3179;54.350;10.102;2022-08-23T00:11:43;2.03;;;1.40;;
6292;SDS011;3179;54.350;10.102;2022-08-23T00:14:12;5.87;;;2.23;;
6292;SDS011;3179;54.350;10.102;2022-08-23T00:16:41;2.17;;;1.70;;
6292;SDS011;3179;54.350;10.102;2022-08-23T00:19:10;2.50;;;1.90;;
6292;SDS011;3179;54.350;10.102;2022-08-23T00:21:39;2.33;;;1.57;;
6292;SDS011;3179;54.350;10.102;2022-08-23T00:24:07;2.70;;;1.50;;
6292;SDS011;3179;54.350;10.102;2022-08-23T00:26:50;1.93;;;1.60;;
6292;SDS011;3179;54.350;10.102;2022-08-23T00:29:20;3.20;;;1.33;;
6292;SDS011;3179;54.350;10.102;2022-08-23T00:31:48;2.17;;;1.60;;
6292;SDS011;3179;54.350;10.102;2022-08-23T00:34:15;3.40;;;1.60;;
6292;SDS011;3179;54.350;10.102;2022-08-23T00:36:42;3.50;;;2.00;;
6292;SDS011;3179;54.350;10.102;2022-08-23T00:39:10;5.00;;;1.90;;
6292;SDS011;3179;54.350;10.102;2022-08-23T00:41:37;2.70;;;1.57;;
6292;SDS011;3179;54.350;10.102;2022-08-23T00:44:05;5.30;;;2.00;;
6292;SDS011;3179;54.350;10.102;2022-08-23T00:46:57;2.40;;;1.30;;
6292;SDS011;3179;54.350;10.102;2022-08-23T00:49:44;3.50;;;1.43;;
6292;SDS011;3179;54.350;10.102;2022-08-23T00:52:17;1.90;;;1.60;;
6292;SDS011;3179;54.350;10.102;2022-08-23T00:54:50;2.27;;;1.40;;
6292;SDS011;3179;54.350;10.102;2022-08-23T00:57:19;3.20;;;1.40;;
6292;SDS011;3179;54.350;10.102;2022-08-23T00:59:47;2.20;;;1.43;;
6292;SDS011;3179;54.350;10.102;2022-08-23T01:02:14;4.37;;;2.00;;
6292;SDS011;3179;54.350;10.102;2022-08-23T01:04:43;3.60;;;1.60;;
6292;SDS011;3179;54.350;10.102;2022-08-23T01:07:15;2.93;;;1.93;;
6292;SDS011;3179;54.350;10.102;2022-08-23T01:09:48;3.33;;;1.57;;
6292;SDS011;3179;54.350;10.102;2022-08-23T01:12:19;1.60;;;1.37;;
6292;SDS011;3179;54.350;10.102;2022-08-23T01:14:57;3.67;;;1.83;;
6292;SDS011;3179;54.350;10.102;2022-08-23T01:17:27;2.80;;;1.87;;
6292;SDS011;3179;54.350;10.102;2022-08-23T01:20:00;3.27;;;1.80;;
6292;SDS011;3179;54.350;10.102;2022-08-23T01:22:31;7.00;;;2.57;;
6292;SDS011;3179;54.350;10.102;2022-08-23T01:25:03;2.97;;;1.60;;
6292;SDS011;3179;54.350;10.102;2022-08-23T01:27:31;3.60;;;1.43;;
6292;SDS011;3179;54.350;10.102;2022-08-23T01:30:00;4.57;;;1.60;;
6292;SDS011;3179;54.350;10.102;2022-08-23T01:32:28;4.40;;;1.50;;
6292;SDS011;3179;54.350;10.102;2022-08-23T01:34:57;2.20;;;1.30;;
6292;SDS011;3179;54.350;10.102;2022-08-23T01:37:23;3.67;;;2.17;;
6292;SDS011;3179;54.350;10.102;2022-08-23T01:39:50;4.67;;;1.77;;
6292;SDS011;3179;54.350;10.102;2022-08-23T01:42:20;2.27;;;1.50;;
6292;SDS011;3179;54.350;10.102;2022-08-23T01:44:47;3.10;;;1.50;;
6292;SDS011;3179;54.350;10.102;2022-08-23T01:47:14;3.27;;;1.33;;
6292;SDS011;3179;54.350;10.102;2022-08-23T01:49:41;2.50;;;1.67;;
6292;SDS011;3179;54.350;10.102;2022-08-23T01:52:08;6.90;;;2.27;;
6292;SDS011;3179;54.350;10.102;2022-08-23T01:54:34;3.70;;;2.00;;
6292;SDS011;3179;54.350;10.102;2022-08-23T01:57:01;2.30;;;1.50;;
6292;SDS011;3179;54.350;10.102;2022-08-23T01:59:31;1.73;;;1.43;;
6292;SDS011;3179;54.350;10.102;2022-08-23T02:01:58;2.57;;;1.40;;
6292;SDS011;3179;54.350;10.102;2022-08-23T02:04:25;3.60;;;1.70;;
6292;SDS011;3179;54.350;10.102;2022-08-23T02:06:52;3.10;;;1.60;;
6292;SDS011;3179;54.350;10.102;2022-08-23T02:09:18;2.83;;;1.70;;
6292;SDS011;3179;54.350;10.102;2022-08-23T02:11:45;2.73;;;1.73;;
6292;SDS011;3179;54.350;10.102;2022-08-23T02:14:14;3.70;;;2.10;;
6292;SDS011;3179;54.350;10.102;2022-08-23T02:16:47;2.23;;;1.67;;
6292;SDS011;3179;54.350;10.102;2022-08-23T02:19:16;3.00;;;1.73;;
6292;SDS011;3179;54.350;10.102;2022-08-23T02:21:43;1.97;;;1.77;;
6292;SDS011;3179;54.350;10.102;2022-08-23T02:24:11;2.70;;;1.60;;
6292;SDS011;3179;54.350;10.102;2022-08-23T02:26:40;2.90;;;1.53;;
6292;SDS011;3179;54.350;10.102;2022-08-23T02:29:10;4.10;;;1.63;;
6292;SDS011;3179;54.350;10.102;2022-08-23T02:31:38;5.60;;;1.90;;
6292;SDS011;3179;54.350;10.102;2022-08-23T02:34:06;4.07;;;1.73;;
6292;SDS011;3179;54.350;10.102;2022-08-23T02:36:35;3.53;;;1.67;;
6292;SDS011;3179;54.350;10.102;2022-08-23T02:39:02;3.43;;;1.80;;
6292;SDS011;3179;54.350;10.102;2022-08-23T02:41:30;3.30;;;1.73;;
6292;SDS011;3179;54.350;10.102;2022-08-23T02:43:57;1.23;;;1.13;;
6292;SDS011;3179;54.350;10.102;2022-08-23T02:46:24;3.53;;;1.70;;
6292;SDS011;3179;54.350;10.102;2022-08-23T02:48:51;2.57;;;1.50;;
6292;SDS011;3179;54.350;10.102;2022-08-23T02:51:20;3.07;;;1.77;;
6292;SDS011;3179;54.350;10.102;2022-08-23T02:53:47;6.77;;;1.80;;
6292;SDS011;3179;54.350;10.102;2022-08-23T02:56:14;2.30;;;1.70;;
6292;SDS011;3179;54.350;10.102;2022-08-23T02:58:41;2.47;;;1.70;;
6292;SDS011;3179;54.350;10.102;2022-08-23T03:01:13;2.10;;;1.80;;
6292;SDS011;3179;54.350;10.102;2022-08-23T03:03:42;2.40;;;1.57;;
6292;SDS011;3179;54.350;10.102;2022-08-23T03:06:09;2.67;;;1.83;;
6292;SDS011;3179;54.350;10.102;2022-08-23T03:08:37;4.37;;;1.63;;
6292;SDS011;3179;54.350;10.102;2022-08-23T03:11:09;2.67;;;1.53;;
6292;SDS011;3179;54.350;10.102;2022-08-23T03:13:37;2.87;;;2.10;;
6292;SDS011;3179;54.350;10.102;2022-08-23T03:16:04;3.20;;;2.20;;
6292;SDS011;3179;54.350;10.102;2022-08-23T03:18:32;3.20;;;1.90;;
6292;SDS011;3179;54.350;10.102;2022-08-23T03:20:59;3.33;;;1.90;;
6292;SDS011;3179;54.350;10.102;2022-08-23T03:23:26;2.87;;;1.70;;
6292;SDS011;3179;54.350;10.102;2022-08-23T03:25:54;2.27;;;1.50;;
6292;SDS011;3179;54.350;10.102;2022-08-23T03:28:22;6.30;;;2.27;;
6292;SDS011;3179;54.350;10.102;2022-08-23T03:30:49;2.50;;;1.77;;
6292;SDS011;3179;54.350;10.102;2022-08-23T03:33:16;3.70;;;2.10;;
6292;SDS011;3179;54.350;10.102;2022-08-23T03:35:43;5.70;;;1.60;;
6292;SDS011;3179;54.350;10.102;2022-08-23T03:38:10;1.70;;;1.40;;
6292;SDS011;3179;54.350;10.102;2022-08-23T03:40:37;3.43;;;1.83;;
6292;SDS011;3179;54.350;10.102;2022-08-23T03:43:06;2.57;;;1.50;;
6292;SDS011;3179;54.350;10.102;2022-08-23T03:45:33;2.80;;;1.80;;
6292;SDS011;3179;54.350;10.102;2022-08-23T03:48:00;2.40;;;1.70;;
6292;SDS011;3179;54.350;10.102;2022-08-23T03:50:26;3.07;;;1.83;;
6292;SDS011;3179;54.350;10.102;2022-08-23T03:52:55;2.17;;;1.70;;
6292;SDS011;3179;54.350;10.102;2022-08-23T03:55:21;3.90;;;1.80;;
6292;SDS011;3179;54.350;10.102;2022-08-23T03:57:48;3.73;;;1.70;;
6292;SDS011;3179;54.350;10.102;2022-08-23T04:00:16;3.63;;;1.70;;
6292;SDS011;3179;54.350;10.102;2022-08-23T04:02:43;2.60;;;1.60;;
6292;SDS011;3179;54.350;10.102;2022-08-23T04:05:10;3.37;;;1.60;;
6292;SDS011;3179;54.350;10.102;2022-08-23T04:07:37;3.70;;;1.87;;
6292;SDS011;3179;54.350;10.102;2022-08-23T04:10:05;6.77;;;2.07;;
6292;SDS011;3179;54.350;10.102;2022-08-23T04:12:34;3.80;;;2.00;;
6292;SDS011;3179;54.350;10.102;2022-08-23T04:15:00;3.50;;;1.73;;
6292;SDS011;3179;54.350;10.102;2022-08-23T04:17:29;3.50;;;2.03;;
6292;SDS011;3179;54.350;10.102;2022-08-23T04:19:56;3.07;;;1.70;;
6292;SDS011;3179;54.350;10.102;2022-08-23T04:22:23;2.63;;;1.60;;
6292;SDS011;3179;54.350;10.102;2022-08-23T04:24:50;6.23;;;2.10;;
6292;SDS011;3179;54.350;10.102;2022-08-23T04:27:16;4.00;;;1.60;;
6292;SDS011;3179;54.350;10.102;2022-08-23T04:29:43;3.07;;;2.33;;
6292;SDS011;3179;54.350;10.102;2022-08-23T04:32:11;2.90;;;2.00;;
6292;SDS011;3179;54.350;10.102;2022-08-23T04:34:40;2.83;;;1.70;;
6292;SDS011;3179;54.350;10.102;2022-08-23T04:37:07;1.97;;;1.70;;
6292;SDS011;3179;54.350;10.102;2022-08-23T04:39:34;3.00;;;1.80;;
6292;SDS011;3179;54.350;10.102;2022-08-23T04:42:22;3.23;;;1.70;;
6292;SDS011;3179;54.350;10.102;2022-08-23T04:44:48;2.00;;;1.70;;
6292;SDS011;3179;54.350;10.102;2022-08-23T04:47:16;4.53;;;1.90;;
6292;SDS011;3179;54.350;10.102;2022-08-23T04:49:45;2.37;;;1.70;;
6292;SDS011;3179;54.350;10.102;2022-08-23T04:52:12;6.33;;;2.33;;
6292;SDS011;3179;54.350;10.102;2022-08-23T04:54:39;1.90;;;1.60;;
6292;SDS011;3179;54.350;10.102;2022-08-23T04:57:05;3.10;;;2.00;;
6292;SDS011;3179;54.350;10.102;2022-08-23T04:59:32;3.17;;;1.50;;
6292;SDS011;3179;54.350;10.102;2022-08-23T05:01:59;4.27;;;1.90;;
6292;SDS011;3179;54.350;10.102;2022-08-23T05:04:26;3.20;;;1.70;;
6292;SDS011;3179;54.350;10.102;2022-08-23T05:06:55;2.80;;;1.70;;
6292;SDS011;3179;54.350;10.102;2022-08-23T05:09:22;2.80;;;1.70;;
6292;SDS011;3179;54.350;10.102;2022-08-23T05:11:49;5.87;;;1.70;;
6292;SDS011;3179;54.350;10.102;2022-08-23T05:14:16;2.40;;;1.67;;
6292;SDS011;3179;54.350;10.102;2022-08-23T05:16:43;2.60;;;1.70;;
6292;SDS011;3179;54.350;10.102;2022-08-23T05:19:09;3.37;;;1.70;;
6292;SDS011;3179;54.350;10.102;2022-08-23T05:21:36;3.27;;;1.57;;
6292;SDS011;3179;54.350;10.102;2022-08-23T05:24:04;2.63;;;2.00;;
6292;SDS011;3179;54.350;10.102;2022-08-23T05:26:31;4.80;;;2.33;;
6292;SDS011;3179;54.350;10.102;2022-08-23T05:28:58;2.30;;;1.77;;
6292;SDS011;3179;54.350;10.102;2022-08-23T05:31:25;3.10;;;2.00;;
6292;SDS011;3179;54.350;10.102;2022-08-23T05:33:54;3.23;;;1.93;;
6292;SDS011;3179;54.350;10.102;2022-08-23T05:36:21;2.60;;;1.70;;
6292;SDS011;3179;54.350;10.102;2022-08-23T05:38:48;3.13;;;1.93;;
6292;SDS011;3179;54.350;10.102;2022-08-23T05:41:18;3.53;;;2.43;;
6292;SDS011;3179;54.350;10.102;2022-08-23T05:43:45;3.80;;;1.77;;
6292;SDS011;3179;54.350;10.102;2022-08-23T05:46:14;2.47;;;1.77;;
6292;SDS011;3179;54.350;10.102;2022-08-23T05:48:42;3.90;;;2.10;;
6292;SDS011;3179;54.350;10.102;2022-08-23T05:51:12;2.03;;;1.50;;
6292;SDS011;3179;54.350;10.102;2022-08-23T05:53:40;2.20;;;1.50;;
6292;SDS011;3179;54.350;10.102;2022-08-23T05:56:12;4.90;;;1.63;;
6292;SDS011;3179;54.350;10.102;2022-08-23T05:58:42;3.00;;;1.90;;
6292;SDS011;3179;54.350;10.102;2022-08-23T06:01:10;2.60;;;1.40;;
6292;SDS011;3179;54.350;10.102;2022-08-23T06:03:38;2.97;;;1.80;;
6292;SDS011;3179;54.350;10.102;2022-08-23T06:06:05;6.33;;;2.13;;
6292;SDS011;3179;54.350;10.102;2022-08-23T06:08:33;4.40;;;2.00;;
6292;SDS011;3179;54.350;10.102;2022-08-23T06:11:01;4.30;;;2.00;;
6292;SDS011;3179;54.350;10.102;2022-08-23T06:13:28;1.97;;;1.60;;
6292;SDS011;3179;54.350;10.102;2022-08-23T06:16:03;2.57;;;1.83;;
6292;SDS011;3179;54.350;10.102;2022-08-23T06:18:31;5.00;;;1.80;;
6292;SDS011;3179;54.350;10.102;2022-08-23T06:20:59;2.23;;;2.03;;
6292;SDS011;3179;54.350;10.102;2022-08-23T06:23:26;3.90;;;1.80;;
6292;SDS011;3179;54.350;10.102;2022-08-23T06:25:54;4.83;;;2.03;;
6292;SDS011;3179;54.350;10.102;2022-08-23T06:28:21;2.40;;;2.20;;
6292;SDS011;3179;54.350;10.102;2022-08-23T06:30:48;1.80;;;1.70;;
6292;SDS011;3179;54.350;10.102;2022-08-23T06:33:19;4.77;;;2.20;;
6292;SDS011;3179;54.350;10.102;2022-08-23T06:35:46;2.60;;;2.10;;
6292;SDS011;3179;54.350;10.102;2022-08-23T06:38:13;2.03;;;1.80;;
6292;SDS011;3179;54.350;10.102;2022-08-23T06:40:40;3.13;;;1.90;;
6292;SDS011;3179;54.350;10.102;2022-08-23T06:43:07;3.33;;;1.97;;
6292;SDS011;3179;54.350;10.102;2022-08-23T06:45:34;6.23;;;2.07;;
6292;SDS011;3179;54.350;10.102;2022-08-23T06:48:01;4.93;;;1.90;;
6292;SDS011;3179;54.350;10.102;2022-08-23T06:50:30;2.93;;;1.60;;
6292;SDS011;3179;54.350;10.102;2022-08-23T06:52:56;4.40;;;2.07;;
6292;SDS011;3179;54.350;10.102;2022-08-23T06:55:23;2.00;;;1.90;;
6292;SDS011;3179;54.350;10.102;2022-08-23T06:57:50;2.20;;;1.53;;
6292;SDS011;3179;54.350;10.102;2022-08-23T07:00:17;1.63;;;1.53;;
6292;SDS011;3179;54.350;10.102;2022-08-23T07:02:44;3.57;;;1.60;;
6292;SDS011;3179;54.350;10.102;2022-08-23T07:05:11;1.93;;;1.43;;
6292;SDS011;3179;54.350;10.102;2022-08-23T07:07:39;1.97;;;1.40;;
6292;SDS011;3179;54.350;10.102;2022-08-23T07:10:06;3.33;;;1.60;;
6292;SDS011;3179;54.350;10.102;2022-08-23T07:12:36;2.97;;;1.50;;
6292;SDS011;3179;54.350;10.102;2022-08-23T07:15:06;1.70;;;1.50;;
6292;SDS011;3179;54.350;10.102;2022-08-23T07:17:34;2.83;;;1.60;;
6292;SDS011;3179;54.350;10.102;2022-08-23T07:20:00;1.80;;;1.50;;
6292;SDS011;3179;54.350;10.102;2022-08-23T07:22:28;1.60;;;1.40;;
6292;SDS011;3179;54.350;10.102;2022-08-23T07:24:56;1.67;;;1.57;;
6292;SDS011;3179;54.350;10.102;2022-08-23T07:27:23;1.40;;;1.30;;
6292;SDS011;3179;54.350;10.102;2022-08-23T07:29:50;3.47;;;1.50;;
6292;SDS011;3179;54.350;10.102;2022-08-23T07:32:17;1.50;;;1.40;;
6292;SDS011;3179;54.350;10.102;2022-08-23T07:34:44;1.50;;;1.33;;
6292;SDS011;3179;54.350;10.102;2022-08-23T07:37:10;1.73;;;1.40;;
6292;SDS011;3179;54.350;10.102;2022-08-23T07:39:38;4.30;;;2.17;;
6292;SDS011;3179;54.350;10.102;2022-08-23T07:42:06;1.90;;;1.60;;
6292;SDS011;3179;54.350;10.102;2022-08-23T07:44:33;2.27;;;1.50;;
6292;SDS011;3179;54.350;10.102;2022-08-23T07:47:00;1.77;;;1.10;;
6292;SDS011;3179;54.350;10.102;2022-08-23T07:49:27;2.70;;;1.67;;
6292;SDS011;3179;54.350;10.102;2022-08-23T07:51:54;4.30;;;1.70;;
6292;SDS011;3179;54.350;10.102;2022-08-23T07:54:22;2.53;;;1.60;;
6292;SDS011;3179;54.350;10.102;2022-08-23T07:56:49;3.37;;;1.63;;
6292;SDS011;3179;54.350;10.102;2022-08-23T07:59:17;1.30;;;1.13;;
6292;SDS011;3179;54.350;10.102;2022-08-23T08:01:44;1.40;;;1.30;;
6292;SDS011;3179;54.350;10.102;2022-08-23T08:04:11;4.40;;;1.60;;
6292;SDS011;3179;54.350;10.102;2022-08-23T08:06:38;1.50;;;1.40;;
6292;SDS011;3179;54.350;10.102;2022-08-23T08:09:07;2.97;;;1.67;;
6292;SDS011;3179;54.350;10.102;2022-08-23T08:11:35;1.80;;;1.67;;
6292;SDS011;3179;54.350;10.102;2022-08-23T08:14:03;2.07;;;1.37;;
6292;SDS011;3179;54.350;10.102;2022-08-23T08:16:34;2.17;;;1.50;;
6292;SDS011;3179;54.350;10.102;2022-08-23T08:19:04;4.63;;;1.50;;
6292;SDS011;3179;54.350;10.102;2022-08-23T08:21:32;1.57;;;1.47;;
6292;SDS011;3179;54.350;10.102;2022-08-23T08:23:59;2.73;;;1.47;;
6292;SDS011;3179;54.350;10.102;2022-08-23T08:26:27;4.20;;;1.70;;
6292;SDS011;3179;54.350;10.102;2022-08-23T08:28:54;3.10;;;1.60;;
6292;SDS011;3179;54.350;10.102;2022-08-23T08:31:21;1.37;;;1.27;;
6292;SDS011;3179;54.350;10.102;2022-08-23T08:33:50;3.70;;;1.40;;
6292;SDS011;3179;54.350;10.102;2022-08-23T08:36:27;6.60;;;1.80;;
6292;SDS011;3179;54.350;10.102;2022-08-23T08:38:59;3.30;;;1.80;;
6292;SDS011;3179;54.350;10.102;2022-08-23T08:41:29;2.20;;;1.40;;
6292;SDS011;3179;54.350;10.102;2022-08-23T08:44:11;6.67;;;1.47;;
6292;SDS011;3179;54.350;10.102;2022-08-23T08:46:49;1.80;;;1.30;;
6292;SDS011;3179;54.350;10.102;2022-08-23T08:49:21;2.40;;;1.40;;
6292;SDS011;3179;54.350;10.102;2022-08-23T08:51:58;1.47;;;1.30;;
6292;SDS011;3179;54.350;10.102;2022-08-23T08:54:32;2.70;;;1.50;;
6292;SDS011;3179;54.350;10.102;2022-08-23T08:57:01;1.50;;;1.40;;
6292;SDS011;3179;54.350;10.102;2022-08-23T08:59:34;1.53;;;1.43;;
6292;SDS011;3179;54.350;10.102;2022-08-23T09:02:13;1.90;;;1.70;;
6292;SDS011;3179;54.350;10.102;2022-08-23T09:04:51;2.23;;;1.90;;
6292;SDS011;3179;54.350;10.102;2022-08-23T09:07:21;3.10;;;1.50;;
6292;SDS011;3179;54.350;10.102;2022-08-23T09:10:02;2.67;;;1.67;;
6292;SDS011;3179;54.350;10.102;2022-08-23T09:12:42;2.50;;;1.70;;
6292;SDS011;3179;54.350;10.102;2022-08-23T09:15:18;5.00;;;1.50;;
6292;SDS011;3179;54.350;10.102;2022-08-23T09:17:51;1.80;;;1.50;;
6292;SDS011;3179;54.350;10.102;2022-08-23T09:20:20;2.03;;;1.47;;
6292;SDS011;3179;54.350;10.102;2022-08-23T09:22:49;1.90;;;1.40;;
6292;SDS011;3179;54.350;10.102;2022-08-23T09:25:22;2.00;;;1.40;;
6292;SDS011;3179;54.350;10.102;2022-08-23T09:27:49;2.00;;;1.33;;
6292;SDS011;3179;54.350;10.102;2022-08-23T09:30:18;2.10;;;1.53;;
6292;SDS011;3179;54.350;10.102;2022-08-23T09:32:46;2.57;;;1.60;;
6292;SDS011;3179;54.350;10.102;2022-08-23T09:35:15;1.37;;;1.27;;
6292;SDS011;3179;54.350;10.102;2022-08-23T09:37:55;3.23;;;1.40;;
6292;SDS011;3179;54.350;10.102;2022-08-23T09:40:26;1.30;;;1.20;;
6292;SDS011;3179;54.350;10.102;2022-08-23T09:43:04;2.00;;;1.20;;
6292;SDS011;3179;54.350;10.102;2022-08-23T09:45:35;1.57;;;1.47;;
6292;SDS011;3179;54.350;10.102;2022-08-23T09:48:04;1.97;;;1.60;;
6292;SDS011;3179;54.350;10.102;2022-08-23T09:50:33;4.97;;;1.70;;
6292;SDS011;3179;54.350;10.102;2022-08-23T09:53:06;1.57;;;1.43;;
6292;SDS011;3179;54.350;10.102;2022-08-23T09:55:35;2.23;;;1.30;;
6292;SDS011;3179;54.350;10.102;2022-08-23T09:58:06;2.10;;;1.47;;
6292;SDS011;3179;54.350;10.102;2022-08-23T10:00:42;1.57;;;1.33;;
6292;SDS011;3179;54.350;10.102;2022-08-23T10:03:24;2.97;;;1.37;;
6292;SDS011;3179;54.350;10.102;2022-08-23T10:05:53;1.20;;;1.10;;
6292;SDS011;3179;54.350;10.102;2022-08-23T10:08:23;3.20;;;1.27;;
6292;SDS011;3179;54.350;10.102;2022-08-23T10:10:52;3.00;;;1.60;;
6292;SDS011;3179;54.350;10.102;2022-08-23T10:13:23;4.40;;;1.33;;
6292;SDS011;3179;54.350;10.102;2022-08-23T10:15:53;2.43;;;1.50;;
6292;SDS011;3179;54.350;10.102;2022-08-23T10:18:34;3.17;;;1.50;;
6292;SDS011;3179;54.350;10.102;2022-08-23T10:21:16;9.83;;;2.00;;
6292;SDS011;3179;54.350;10.102;2022-08-23T10:23:52;3.50;;;1.10;;
6292;SDS011;3179;54.350;10.102;2022-08-23T10:26:31;1.20;;;1.10;;
6292;SDS011;3179;54.350;10.102;2022-08-23T10:29:03;3.80;;;1.70;;
6292;SDS011;3179;54.350;10.102;2022-08-23T10:31:57;2.33;;;1.33;;
6292;SDS011;3179;54.350;10.102;2022-08-23T10:34:42;3.03;;;1.80;;
6292;SDS011;3179;54.350;10.102;2022-08-23T10:37:24;1.63;;;0.83;;
6292;SDS011;3179;54.350;10.102;2022-08-23T10:40:02;1.50;;;1.00;;
6292;SDS011;3179;54.350;10.102;2022-08-23T10:42:37;1.30;;;1.20;;
6292;SDS011;3179;54.350;10.102;2022-08-23T10:45:15;6.90;;;1.10;;
6292;SDS011;3179;54.350;10.102;2022-08-23T10:48:02;1.27;;;1.00;;
6292;SDS011;3179;54.350;10.102;2022-08-23T10:50:42;4.50;;;1.30;;
6292;SDS011;3179;54.350;10.102;2022-08-23T10:53:12;2.90;;;1.70;;
6292;SDS011;3179;54.350;10.102;2022-08-23T10:55:44;1.83;;;1.37;;
6292;SDS011;3179;54.350;10.102;2022-08-23T10:58:29;3.13;;;1.30;;
6292;SDS011;3179;54.350;10.102;2022-08-23T11:01:02;2.50;;;1.50;;
6292;SDS011;3179;54.350;10.102;2022-08-23T11:03:31;1.67;;;1.57;;
6292;SDS011;3179;54.350;10.102;2022-08-23T11:08:55;2.77;;;1.10;;
6292;SDS011;3179;54.350;10.102;2022-08-23T11:11:32;9.27;;;1.63;;
6292;SDS011;3179;54.350;10.102;2022-08-23T11:14:07;3.30;;;1.63;;
6292;SDS011;3179;54.350;10.102;2022-08-23T11:16:37;3.00;;;1.77;;
6292;SDS011;3179;54.350;10.102;2022-08-23T11:19:10;2.20;;;1.20;;
6292;SDS011;3179;54.350;10.102;2022-08-23T11:21:40;3.57;;;1.63;;
6292;SDS011;3179;54.350;10.102;2022-08-23T11:27:29;1.73;;;1.27;;
6292;SDS011;3179;54.350;10.102;2022-08-23T11:32:59;2.90;;;1.80;;
6292;SDS011;3179;54.350;10.102;2022-08-23T11:35:36;2.93;;;1.30;;
6292;SDS011;3179;54.350;10.102;2022-08-23T11:38:06;3.17;;;1.30;;
6292;SDS011;3179;54.350;10.102;2022-08-23T11:40:35;1.60;;;1.23;;
6292;SDS011;3179;54.350;10.102;2022-08-23T11:43:21;2.37;;;1.30;;
6292;SDS011;3179;54.350;10.102;2022-08-23T11:45:53;2.20;;;1.30;;
6292;SDS011;3179;54.350;10.102;2022-08-23T11:48:38;2.17;;;1.30;;
6292;SDS011;3179;54.350;10.102;2022-08-23T11:51:13;3.10;;;1.10;;
6292;SDS011;3179;54.350;10.102;2022-08-23T11:54:10;1.83;;;1.23;;
6292;SDS011;3179;54.350;10.102;2022-08-23T11:56:58;3.43;;;1.50;;
6292;SDS011;3179;54.350;10.102;2022-08-23T11:59:51;2.10;;;1.30;;
6292;SDS011;3179;54.350;10.102;2022-08-23T12:02:33;2.57;;;1.43;;
6292;SDS011;3179;54.350;10.102;2022-08-23T12:05:16;1.67;;;1.40;;
6292;SDS011;3179;54.350;10.102;2022-08-23T12:07:49;3.90;;;1.30;;
6292;SDS011;3179;54.350;10.102;2022-08-23T12:10:21;1.73;;;1.23;;
6292;SDS011;3179;54.350;10.102;2022-08-23T12:13:28;1.77;;;1.10;;
6292;SDS011;3179;54.350;10.102;2022-08-23T12:16:05;1.27;;;1.00;;
6292;SDS011;3179;54.350;10.102;2022-08-23T12:18:36;1.90;;;1.30;;
6292;SDS011;3179;54.350;10.102;2022-08-23T12:21:07;2.30;;;1.30;;
6292;SDS011;3179;54.350;10.102;2022-08-23T12:23:43;1.37;;;1.10;;
6292;SDS011;3179;54.350;10.102;2022-08-23T12:26:12;2.60;;;1.37;;
6292;SDS011;3179;54.350;10.102;2022-08-23T12:29:04;2.30;;;1.20;;
6292;SDS011;3179;54.350;10.102;2022-08-23T12:31:42;3.10;;;1.20;;
6292;SDS011;3179;54.350;10.102;2022-08-23T12:34:19;1.37;;;1.20;;
6292;SDS011;3179;54.350;10.102;2022-08-23T12:36:53;2.17;;;1.37;;
6292;SDS011;3179;54.350;10.102;2022-08-23T12:39:28;1.73;;;1.20;;
6292;SDS011;3179;54.350;10.102;2022-08-23T12:42:02;2.90;;;1.07;;
6292;SDS011;3179;54.350;10.102;2022-08-23T12:44:33;1.77;;;1.23;;
6292;SDS011;3179;54.350;10.102;2022-08-23T12:47:09;1.40;;;1.30;;
6292;SDS011;3179;54.350;10.102;2022-08-23T12:49:38;1.60;;;1.50;;
6292;SDS011;3179;54.350;10.102;2022-08-23T12:52:05;1.73;;;1.53;;
6292;SDS011;3179;54.350;10.102;2022-08-23T12:54:35;1.43;;;1.00;;
6292;SDS011;3179;54.350;10.102;2022-08-23T12:57:04;1.70;;;1.00;;
6292;SDS011;3179;54.350;10.102;2022-08-23T12:59:38;6.50;;;1.53;;
6292;SDS011;3179;54.350;10.102;2022-08-23T13:02:09;1.30;;;1.20;;
6292;SDS011;3179;54.350;10.102;2022-08-23T13:04:39;1.20;;;1.10;;
6292;SDS011;3179;54.350;10.102;2022-08-23T13:07:08;1.60;;;0.90;;
6292;SDS011;3179;54.350;10.102;2022-08-23T13:09:38;1.50;;;1.13;;
6292;SDS011;3179;54.350;10.102;2022-08-23T13:12:07;1.33;;;1.10;;
6292;SDS011;3179;54.350;10.102;2022-08-23T13:14:36;1.47;;;1.13;;
6292;SDS011;3179;54.350;10.102;2022-08-23T13:17:13;3.17;;;0.90;;
6292;SDS011;3179;54.350;10.102;2022-08-23T13:19:43;1.27;;;1.07;;
6292;SDS011;3179;54.350;10.102;2022-08-23T13:22:11;2.17;;;1.70;;
6292;SDS011;3179;54.350;10.102;2022-08-23T13:24:45;2.47;;;1.23;;
6292;SDS011;3179;54.350;10.102;2022-08-23T13:27:25;2.00;;;1.10;;
6292;SDS011;3179;54.350;10.102;2022-08-23T13:29:56;1.80;;;1.10;;
6292;SDS011;3179;54.350;10.102;2022-08-23T13:35:30;1.23;;;1.03;;
6292;SDS011;3179;54.350;10.102;2022-08-23T13:37:59;1.57;;;1.13;;
6292;SDS011;3179;54.350;10.102;2022-08-23T13:40:38;1.63;;;1.10;;
6292;SDS011;3179;54.350;10.102;2022-08-23T13:43:08;1.60;;;1.20;;
6292;SDS011;3179;54.350;10.102;2022-08-23T13:45:44;3.67;;;1.50;;
6292;SDS011;3179;54.350;10.102;2022-08-23T13:48:15;4.10;;;1.37;;
6292;SDS011;3179;54.350;10.102;2022-08-23T13:50:45;1.37;;;1.10;;
6292;SDS011;3179;54.350;10.102;2022-08-23T13:53:12;0.90;;;0.90;;
6292;SDS011;3179;54.350;10.102;2022-08-23T13:55:40;2.50;;;1.17;;
6292;SDS011;3179;54.350;10.102;2022-08-23T13:58:09;1.80;;;1.30;;
6292;SDS011;3179;54.350;10.102;2022-08-23T14:00:37;3.23;;;1.33;;
6292;SDS011;3179;54.350;10.102;2022-08-23T14:03:06;2.30;;;1.20;;
6292;SDS011;3179;54.350;10.102;2022-08-23T14:05:33;1.20;;;1.10;;
6292;SDS011;3179;54.350;10.102;2022-08-23T14:08:00;2.10;;;1.10;;
6292;SDS011;3179;54.350;10.102;2022-08-23T14:10:26;1.48;;;1.02;;
6292;SDS011;3179;54.350;10.102;2022-08-23T14:12:53;22.65;;;7.88;;
6292;SDS011;3179;54.350;10.102;2022-08-23T14:15:21;94.43;;;25.70;;
6292;SDS011;3179;54.350;10.102;2022-08-23T14:17:48;80.28;;;24.52;;
6292;SDS011;3179;54.350;10.102;2022-08-23T14:20:19;24.95;;;7.63;;
6292;SDS011;3179;54.350;10.102;2022-08-23T14:22:47;10.95;;;4.43;;
6292;SDS011;3179;54.350;10.102;2022-08-23T14:25:14;5.97;;;2.88;;
6292;SDS011;3179;54.350;10.102;2022-08-23T14:27:41;6.25;;;3.03;;
6292;SDS011;3179;54.350;10.102;2022-08-23T14:30:11;4.03;;;2.13;;
6292;SDS011;3179;54.350;10.102;2022-08-23T14:32:47;4.53;;;2.10;;
6292;SDS011;3179;54.350;10.102;2022-08-23T14:35:13;4.30;;;2.00;;
6292;SDS011;3179;54.350;10.102;2022-08-23T14:37:42;3.10;;;2.25;;
6292;SDS011;3179;54.350;10.102;2022-08-23T14:40:09;2.88;;;1.50;;
6292;SDS011;3179;54.350;10.102;2022-08-23T14:42:36;4.70;;;1.90;;
6292;SDS011;3179;54.350;10.102;2022-08-23T14:45:04;5.35;;;1.80;;
6292;SDS011;3179;54.350;10.102;2022-08-23T14:47:31;4.72;;;1.70;;
6292;SDS011;3179;54.350;10.102;2022-08-23T14:49:59;4.03;;;1.60;;
6292;SDS011;3179;54.350;10.102;2022-08-23T14:52:26;1.92;;;1.55;;
6292;SDS011;3179;54.350;10.102;2022-08-23T14:54:54;1.60;;;1.20;;
6292;SDS011;3179;54.350;10.102;2022-08-23T14:57:21;5.90;;;1.60;;
6292;SDS011;3179;54.350;10.102;2022-08-23T14:59:48;2.00;;;1.67;;
6292;SDS011;3179;54.350;10.102;2022-08-23T15:02:15;2.30;;;1.47;;
6292;SDS011;3179;54.350;10.102;2022-08-23T15:04:48;1.83;;;1.10;;
6292;SDS011;3179;54.350;10.102;2022-08-23T15:07:14;1.27;;;1.17;;
6292;SDS011;3179;54.350;10.102;2022-08-23T15:09:41;1.43;;;1.13;;
6292;SDS011;3179;54.350;10.102;2022-08-23T15:12:10;1.67;;;1.50;;
6292;SDS011;3179;54.350;10.102;2022-08-23T15:14:37;1.30;;;1.20;;
6292;SDS011;3179;54.350;10.102;2022-08-23T15:17:04;3.17;;;1.20;;
6292;SDS011;3179;54.350;10.102;2022-08-23T15:19:31;3.17;;;1.20;;
6292;SDS011;3179;54.350;10.102;2022-08-23T15:21:58;4.13;;;1.43;;
6292;SDS011;3179;54.350;10.102;2022-08-23T15:24:25;4.73;;;1.40;;
6292;SDS011;3179;54.350;10.102;2022-08-23T15:26:52;4.13;;;1.20;;
6292;SDS011;3179;54.350;10.102;2022-08-23T15:29:25;1.97;;;1.40;;
6292;SDS011;3179;54.350;10.102;2022-08-23T15:31:52;1.90;;;1.17;;